Time;durP1;ratioP1;P1;durP2;ratioP2;P2;SDS_P1;SDS_P2;PMS_P1;PMS_P2;Temp;Humidity;BMP_temperature;BMP_pressure;BME280_temperature;BME280_humidity;BME280_pressure;Samples;Min_cycle;Max_cycle;Signal;HPM_P1;HPM_P2
2021/08/14 00:01:24;;;;;;;23.33;8.43;;;;;;;11.28;100.00;102225.72;5226163;28;20025;-80
2021/08/14 00:03:55;;;;;;;25.10;8.77;;;;;;;11.26;100.00;102233.06;5226587;28;20031;-80
2021/08/14 00:06:25;;;;;;;32.85;13.60;;;;;;;11.20;100.00;102226.41;5225990;28;20032;-80
2021/08/14 00:08:55;;;;;;;34.15;13.00;;;;;;;11.18;100.00;102228.38;5226166;28;20070;-80
2021/08/14 00:11:26;;;;;;;19.35;9.15;;;;;;;11.15;100.00;102229.50;5225492;28;20029;-80
2021/08/14 00:13:56;;;;;;;23.80;7.93;;;;;;;11.15;100.00;102234.88;5226269;28;20036;-80
2021/08/14 00:16:27;;;;;;;18.42;8.15;;;;;;;11.15;100.00;102231.34;5226620;28;20043;-80
2021/08/14 00:18:58;;;;;;;16.70;7.10;;;;;;;11.13;100.00;102234.16;5228640;28;20031;-80
2021/08/14 00:21:30;;;;;;;17.55;6.45;;;;;;;11.08;100.00;102235.53;5229899;28;20066;-80
2021/08/14 00:24:01;;;;;;;14.30;6.15;;;;;;;11.04;100.00;102232.28;5230433;28;20025;-80
2021/08/14 00:26:31;;;;;;;17.20;5.80;;;;;;;11.04;100.00;102228.75;5229586;28;20036;-79
2021/08/14 00:29:02;;;;;;;16.23;6.03;;;;;;;11.06;100.00;102224.09;5230432;28;20021;-80
2021/08/14 00:31:33;;;;;;;18.23;5.93;;;;;;;11.02;100.00;102228.88;5222477;28;20090;-80
2021/08/14 00:34:03;;;;;;;11.98;5.57;;;;;;;10.96;100.00;102224.06;5230211;28;20112;-80
2021/08/14 00:36:34;;;;;;;17.92;5.90;;;;;;;10.92;100.00;102222.63;5226370;28;20025;-80
2021/08/14 00:39:04;;;;;;;19.88;6.00;;;;;;;10.91;100.00;102225.44;5225012;28;20025;-80
2021/08/14 00:41:35;;;;;;;20.00;5.55;;;;;;;10.87;100.00;102224.88;5225088;28;20110;-80
2021/08/14 00:44:06;;;;;;;12.52;5.05;;;;;;;10.83;100.00;102216.22;5224852;28;20135;-79
2021/08/14 00:46:37;;;;;;;11.93;5.63;;;;;;;10.78;100.00;102213.09;5207549;28;20029;-80
2021/08/14 00:49:08;;;;;;;14.18;5.65;;;;;;;10.77;100.00;102210.56;5224681;28;20135;-79
2021/08/14 00:51:41;;;;;;;15.35;6.32;;;;;;;10.76;100.00;102211.53;5224454;28;20398;-79
2021/08/14 00:54:12;;;;;;;13.15;5.15;;;;;;;10.74;100.00;102214.34;5224721;28;20371;-79
2021/08/14 00:56:42;;;;;;;16.23;5.30;;;;;;;10.73;100.00;102215.31;5224443;28;20036;-80
2021/08/14 00:59:13;;;;;;;12.13;5.32;;;;;;;10.69;100.00;102211.19;5224875;28;20044;-80
2021/08/14 01:01:44;;;;;;;15.20;6.88;;;;;;;10.66;100.00;102211.50;5224411;28;20058;-80
2021/08/14 01:04:15;;;;;;;17.98;6.97;;;;;;;10.66;100.00;102218.69;5224829;28;20032;-80
2021/08/14 01:06:45;;;;;;;17.00;5.80;;;;;;;10.68;100.00;102208.66;5206393;28;20021;-80
2021/08/14 01:09:16;;;;;;;22.40;6.10;;;;;;;10.67;100.00;102215.03;5225379;28;20032;-79
2021/08/14 01:11:48;;;;;;;17.35;6.00;;;;;;;10.60;100.00;102209.34;5236672;28;20029;-80
2021/08/14 01:14:19;;;;;;;15.07;6.32;;;;;;;10.53;100.00;102206.31;5215192;28;20018;-80
2021/08/14 01:16:49;;;;;;;15.95;5.78;;;;;;;10.49;100.00;102201.34;5212909;28;20496;-80
2021/08/14 01:19:20;;;;;;;26.27;7.15;;;;;;;10.45;100.00;102192.75;5222827;28;20032;-80
2021/08/14 01:21:53;;;;;;;21.45;8.75;;;;;;;10.45;100.00;102198.09;5222896;28;20025;-80
2021/08/14 01:24:24;;;;;;;21.48;8.13;;;;;;;10.46;100.00;102202.47;5221774;28;20025;-80
2021/08/14 01:26:58;;;;;;;21.65;6.43;;;;;;;10.45;100.00;102200.78;5210365;28;20485;-80
2021/08/14 01:29:29;;;;;;;21.77;6.00;;;;;;;10.38;100.00;102191.56;5208534;28;20056;-80
2021/08/14 01:31:59;;;;;;;12.38;5.35;;;;;;;10.33;100.00;102188.41;5218108;28;20028;-80
2021/08/14 01:34:30;;;;;;;16.33;5.93;;;;;;;10.29;100.00;102186.97;5223711;28;20024;-80
2021/08/14 01:37:01;;;;;;;13.52;5.85;;;;;;;10.30;100.00;102186.03;5208964;28;20116;-80
2021/08/14 01:39:32;;;;;;;21.67;8.13;;;;;;;10.31;100.00;102190.41;5220838;28;20166;-80
2021/08/14 01:42:05;;;;;;;17.90;7.32;;;;;;;10.24;100.00;102189.19;5206072;28;20036;-79
2021/08/14 01:44:36;;;;;;;20.10;7.57;;;;;;;10.20;100.00;102188.59;5203258;28;20376;-79
2021/08/14 01:47:09;;;;;;;17.92;6.30;;;;;;;10.19;100.00;102181.53;5208938;28;20025;-80
2021/08/14 01:49:39;;;;;;;19.92;6.55;;;;;;;10.18;100.00;102181.66;5221821;28;20025;-80
2021/08/14 01:52:13;;;;;;;20.23;7.90;;;;;;;10.20;100.00;102185.06;5214048;28;20087;-80
2021/08/14 01:54:46;;;;;;;21.75;6.13;;;;;;;10.23;100.00;102185.63;5202581;28;20056;-80
2021/08/14 01:57:16;;;;;;;19.58;6.05;;;;;;;10.24;100.00;102190.09;5207503;28;20030;-80
2021/08/14 01:59:51;;;;;;;14.82;6.10;;;;;;;10.26;100.00;102192.63;5209056;28;20045;-80
2021/08/14 02:02:22;;;;;;;21.40;6.07;;;;;;;10.27;100.00;102188.94;5218845;28;20028;-80
2021/08/14 02:04:52;;;;;;;15.30;6.32;;;;;;;10.27;100.00;102194.31;5226465;28;20049;-80
2021/08/14 02:07:24;;;;;;;16.35;5.85;;;;;;;10.26;100.00;102192.63;5228043;28;20170;-80
2021/08/14 02:09:55;;;;;;;19.00;7.15;;;;;;;10.27;100.00;102192.47;5211130;28;20025;-80
2021/08/14 02:12:26;;;;;;;20.75;6.63;;;;;;;10.27;100.00;102186.28;5228444;28;20064;-79
2021/08/14 02:14:57;;;;;;;19.83;7.50;;;;;;;10.25;100.00;102181.03;5228003;28;20294;-80
2021/08/14 02:17:27;;;;;;;22.83;9.30;;;;;;;10.26;100.00;102179.22;5226071;28;20143;-80
2021/08/14 02:19:58;;;;;;;19.70;7.30;;;;;;;10.27;100.00;102175.53;5227183;28;20032;-80
2021/08/14 02:22:28;;;;;;;20.55;7.55;;;;;;;10.28;100.00;102169.19;5227689;28;20032;-80
2021/08/14 02:24:59;;;;;;;11.88;5.88;;;;;;;10.27;100.00;102172.84;5227647;28;20116;-80
2021/08/14 02:27:29;;;;;;;20.70;5.80;;;;;;;10.24;100.00;102174.00;5227792;28;20032;-80
2021/08/14 02:30:00;;;;;;;18.70;6.10;;;;;;;10.22;100.00;102175.06;5209710;28;20017;-80
2021/08/14 02:32:30;;;;;;;17.52;5.57;;;;;;;10.20;100.00;102172.50;5227137;28;20424;-80
2021/08/14 02:35:00;;;;;;;19.52;7.07;;;;;;;10.22;100.00;102175.91;5228441;28;20028;-80
2021/08/14 02:37:31;;;;;;;18.30;6.50;;;;;;;10.27;100.00;102172.84;5227236;28;20288;-80
2021/08/14 02:40:02;;;;;;;21.48;7.22;;;;;;;10.33;100.00;102166.97;5227469;28;20489;-80
2021/08/14 02:42:32;;;;;;;28.20;8.23;;;;;;;10.37;100.00;102171.09;5226517;28;20174;-80
2021/08/14 02:45:05;;;;;;;22.00;6.88;;;;;;;10.37;100.00;102157.66;5227717;28;20559;-80
2021/08/14 02:47:37;;;;;;;23.58;5.88;;;;;;;10.35;100.00;102159.66;5226578;28;20198;-80
2021/08/14 02:50:08;;;;;;;21.98;6.60;;;;;;;10.31;100.00;102159.06;5226573;28;20070;-80
2021/08/14 02:52:39;;;;;;;19.83;6.07;;;;;;;10.32;100.00;102159.91;5227038;28;20036;-80
2021/08/14 02:55:09;;;;;;;16.60;4.95;;;;;;;10.30;100.00;102161.88;5227447;28;20394;-80
2021/08/14 02:57:40;;;;;;;21.25;6.00;;;;;;;10.30;100.00;102159.19;5226833;28;20416;-80
2021/08/14 03:00:11;;;;;;;14.95;5.95;;;;;;;10.29;100.00;102160.16;5227010;28;20044;-80
2021/08/14 03:02:41;;;;;;;16.67;5.75;;;;;;;10.24;100.00;102157.00;5226705;28;20025;-80
2021/08/14 03:05:12;;;;;;;19.23;5.95;;;;;;;10.19;100.00;102153.84;5227189;28;20367;-80
2021/08/14 03:07:43;;;;;;;20.42;5.30;;;;;;;10.15;100.00;102149.75;5226603;28;20253;-80
2021/08/14 03:10:13;;;;;;;20.27;5.55;;;;;;;10.13;100.00;102149.88;5227383;28;20048;-80
2021/08/14 03:12:43;;;;;;;15.50;5.25;;;;;;;10.10;100.00;102156.34;5226833;28;20103;-80
2021/08/14 03:15:14;;;;;;;22.38;6.22;;;;;;;10.06;100.00;102159.44;5227033;28;20028;-80
2021/08/14 03:17:45;;;;;;;17.02;6.00;;;;;;;10.04;100.00;102156.88;5227077;28;20025;-80
2021/08/14 03:20:15;;;;;;;24.23;5.72;;;;;;;10.02;100.00;102153.47;5226749;28;20098;-80
2021/08/14 03:22:46;;;;;;;22.02;6.30;;;;;;;10.00;100.00;102150.09;5226922;28;20033;-80
2021/08/14 03:25:16;;;;;;;14.57;5.75;;;;;;;9.97;100.00;102153.00;5226832;28;20087;-80
2021/08/14 03:27:47;;;;;;;15.63;6.15;;;;;;;9.95;100.00;102149.63;5227006;28;20032;-80
2021/08/14 03:30:18;;;;;;;13.82;5.63;;;;;;;9.94;100.00;102155.09;5227195;28;20091;-80
2021/08/14 03:32:48;;;;;;;15.63;5.80;;;;;;;9.94;100.00;102152.41;5226482;28;20029;-80
2021/08/14 03:35:19;;;;;;;17.83;5.72;;;;;;;9.88;100.00;102151.09;5225978;28;20017;-80
2021/08/14 03:37:49;;;;;;;19.20;6.15;;;;;;;9.83;100.00;102147.97;5227171;28;20025;-80
2021/08/14 03:40:20;;;;;;;22.48;6.18;;;;;;;9.81;100.00;102153.47;5225976;28;20178;-80
2021/08/14 03:42:50;;;;;;;21.40;5.63;;;;;;;9.82;100.00;102157.84;5226110;28;20056;-80
2021/08/14 03:45:21;;;;;;;22.08;5.90;;;;;;;9.82;100.00;102151.63;5226552;28;20489;-80
2021/08/14 03:47:51;;;;;;;17.58;6.75;;;;;;;9.80;100.00;102151.78;5226234;28;20029;-80
2021/08/14 03:50:22;;;;;;;17.50;6.10;;;;;;;9.82;100.00;102146.28;5226324;28;20032;-80
2021/08/14 03:52:52;;;;;;;25.38;6.03;;;;;;;9.80;100.00;102150.94;5227040;28;20092;-80
2021/08/14 03:55:23;;;;;;;16.98;5.68;;;;;;;9.76;100.00;102147.66;5225603;28;20025;-80
2021/08/14 03:57:53;;;;;;;13.38;5.78;;;;;;;9.75;100.00;102145.09;5226266;28;20398;-80
2021/08/14 04:00:23;;;;;;;17.45;6.97;;;;;;;9.75;100.00;102140.59;5192052;28;20119;-80
2021/08/14 04:02:54;;;;;;;18.23;6.22;;;;;;;9.78;100.00;102143.00;5226461;28;20050;-80
2021/08/14 04:05:24;;;;;;;16.27;5.65;;;;;;;9.84;100.00;102137.13;5226393;28;20119;-80
2021/08/14 04:07:55;;;;;;;26.90;5.85;;;;;;;9.88;100.00;102129.66;5227122;28;20021;-80
2021/08/14 04:10:25;;;;;;;16.67;6.97;;;;;;;9.93;100.00;102135.47;5226510;28;20040;-80
2021/08/14 04:12:56;;;;;;;20.52;5.95;;;;;;;9.98;100.00;102130.56;5226853;28;20025;-80
2021/08/14 04:15:29;;;;;;;21.23;6.53;;;;;;;9.99;100.00;102134.97;5225897;28;20155;-81
2021/08/14 04:17:59;;;;;;;18.92;6.75;;;;;;;10.00;100.00;102134.00;5226146;28;20029;-80
2021/08/14 04:20:30;;;;;;;32.05;6.95;;;;;;;10.05;100.00;102136.28;5208478;28;20052;-80
2021/08/14 04:23:01;;;;;;;28.02;7.22;;;;;;;10.11;100.00;102141.13;5226326;28;20104;-80
2021/08/14 04:25:32;;;;;;;28.27;7.60;;;;;;;10.16;100.00;102136.22;5225739;28;20107;-80
2021/08/14 04:28:02;;;;;;;22.20;6.80;;;;;;;10.18;100.00;102138.75;5225705;28;20029;-80
2021/08/14 04:30:33;;;;;;;27.73;8.65;;;;;;;10.16;100.00;102138.03;5225590;28;20055;-80
2021/08/14 04:33:03;;;;;;;20.45;7.28;;;;;;;10.13;100.00;102136.47;5225572;28;20092;-80
2021/08/14 04:35:34;;;;;;;20.55;7.25;;;;;;;10.09;100.00;102143.94;5225519;28;20044;-80
2021/08/14 04:38:04;;;;;;;29.08;6.80;;;;;;;10.06;100.00;102135.28;5225948;28;20382;-80
2021/08/14 04:40:35;;;;;;;21.05;5.75;;;;;;;10.09;100.00;102148.44;5225447;28;20040;-80
2021/08/14 04:43:05;;;;;;;16.35;5.50;;;;;;;10.08;100.00;102149.41;5226253;28;20293;-80
2021/08/14 04:45:35;;;;;;;23.92;6.20;;;;;;;10.09;100.00;102151.09;5225345;28;20029;-80
2021/08/14 04:48:06;;;;;;;19.05;5.85;;;;;;;10.09;100.00;102148.44;5225256;28;20079;-80
2021/08/14 04:50:36;;;;;;;20.75;6.40;;;;;;;10.10;100.00;102150.16;5225621;28;20032;-80
2021/08/14 04:53:07;;;;;;;18.52;6.28;;;;;;;10.09;100.00;102149.31;5225560;28;20494;-80
2021/08/14 04:55:37;;;;;;;15.90;5.82;;;;;;;10.17;100.00;102142.41;5225987;28;20055;-80
2021/08/14 04:58:11;;;;;;;22.10;6.72;;;;;;;10.27;100.00;102143.34;5227348;28;20239;-80
2021/08/14 05:00:41;;;;;;;18.30;6.05;;;;;;;10.28;100.00;102151.25;5226950;28;20020;-81
2021/08/14 05:03:12;;;;;;;15.90;5.82;;;;;;;10.25;100.00;102150.69;5226855;28;20040;-80
2021/08/14 05:05:43;;;;;;;17.67;6.30;;;;;;;10.30;100.00;102159.19;5238902;28;20116;-81
2021/08/14 05:08:13;;;;;;;17.15;6.00;;;;;;;10.34;100.00;102153.44;5227886;28;20100;-80
2021/08/14 05:10:44;;;;;;;15.05;5.95;;;;;;;10.41;100.00;102152.91;5226702;28;20036;-81
2021/08/14 05:13:14;;;;;;;22.25;6.10;;;;;;;10.46;100.00;102153.34;5227972;28;20221;-80
2021/08/14 05:15:44;;;;;;;27.17;7.97;;;;;;;10.52;100.00;102158.16;5227387;28;20064;-80
2021/08/14 05:18:16;;;;;;;24.98;6.68;;;;;;;10.61;100.00;102160.91;5226817;28;20036;-80
2021/08/14 05:20:47;;;;;;;14.95;6.05;;;;;;;10.73;100.00;102158.13;5238659;28;20037;-79
2021/08/14 05:23:17;;;;;;;22.17;7.07;;;;;;;10.79;100.00;102161.13;5228922;28;20024;-80
2021/08/14 05:25:48;;;;;;;17.23;6.30;;;;;;;10.89;100.00;102162.00;5227082;28;20039;-80
2021/08/14 05:28:18;;;;;;;27.90;7.70;;;;;;;10.97;100.00;102161.31;5216198;28;20029;-81
2021/08/14 05:30:49;;;;;;;24.10;6.22;;;;;;;11.14;100.00;102165.16;5211348;28;20035;-81
2021/08/14 05:33:19;;;;;;;25.70;7.80;;;;;;;11.71;100.00;102157.31;5216176;28;20032;-80
2021/08/14 05:35:50;;;;;;;24.67;6.82;;;;;;;12.74;100.00;102161.94;5211294;28;20025;-82
2021/08/14 05:38:20;;;;;;;19.33;5.03;;;;;;;13.86;100.00;102167.91;5213173;28;20029;-81
2021/08/14 05:40:51;;;;;;;15.45;4.47;;;;;;;15.05;100.00;102160.84;5225431;28;20586;-80
2021/08/14 05:43:21;;;;;;;9.27;4.03;;;;;;;16.03;100.00;102152.91;5213349;28;20021;-80
2021/08/14 05:45:52;;;;;;;14.80;4.75;;;;;;;16.72;100.00;102150.59;5206608;28;20432;-80
2021/08/14 05:48:23;;;;;;;22.08;4.32;;;;;;;17.21;100.00;102153.06;5222190;28;20035;-83
2021/08/14 05:50:54;;;;;;;10.82;3.88;;;;;;;17.67;100.00;102144.94;5226141;28;20048;-80
2021/08/14 05:53:25;;;;;;;15.30;4.60;;;;;;;17.65;100.00;102147.84;5211032;28;20071;-80
2021/08/14 05:55:55;;;;;;;17.13;4.38;;;;;;;17.76;100.00;102144.72;5212761;28;20102;-81
2021/08/14 05:58:25;;;;;;;13.20;4.50;;;;;;;18.18;100.00;102147.94;5215894;28;20052;-82
2021/08/14 06:00:56;;;;;;;15.88;4.38;;;;;;;18.27;100.00;102146.81;5216451;28;20036;-82
2021/08/14 06:03:32;;;;;;;14.60;5.20;;;;;;;18.53;100.00;102152.66;5214628;28;20017;-82
2021/08/14 06:06:03;;;;;;;14.52;4.35;;;;;;;18.91;100.00;102154.44;5226575;28;20478;-82
2021/08/14 06:08:34;;;;;;;18.08;4.95;;;;;;;19.29;100.00;102153.25;5216375;28;20632;-81
2021/08/14 06:11:04;;;;;;;16.75;4.45;;;;;;;19.88;100.00;102153.03;5223320;28;20028;-80
2021/08/14 06:13:35;;;;;;;16.13;4.88;;;;;;;19.95;100.00;102147.63;5226381;28;20029;-81
2021/08/14 06:16:09;;;;;;;20.17;4.03;;;;;;;20.07;100.00;102156.09;5219611;28;20025;-80
2021/08/14 06:18:41;;;;;;;12.80;4.18;;;;;;;20.23;100.00;102150.38;5221281;28;20036;-80
2021/08/14 06:21:11;;;;;;;15.02;4.47;;;;;;;20.13;100.00;102153.44;5216081;28;20436;-83
2021/08/14 06:23:42;;;;;;;14.27;4.88;;;;;;;20.34;100.00;102162.59;5211332;28;20029;-82
2021/08/14 06:26:12;;;;;;;12.05;4.82;;;;;;;19.76;100.00;102159.19;5213426;28;20028;-82
2021/08/14 06:28:43;;;;;;;17.70;3.97;;;;;;;19.74;100.00;102156.66;5213378;28;20086;-80
2021/08/14 06:31:15;;;;;;;17.95;4.65;;;;;;;18.82;100.00;102156.41;5198241;28;20032;-82
2021/08/14 06:33:46;;;;;;;18.17;5.20;;;;;;;18.05;100.00;102154.84;5218224;28;20107;-82
2021/08/14 06:36:16;;;;;;;20.52;4.50;;;;;;;17.70;100.00;102152.75;5210408;28;20108;-84
2021/08/14 06:38:47;;;;;;;16.80;4.95;;;;;;;17.29;100.00;102150.31;5219963;28;20498;-81
2021/08/14 06:41:17;;;;;;;15.40;4.57;;;;;;;17.25;100.00;102157.13;5210332;28;20447;-81
2021/08/14 06:43:48;;;;;;;24.52;5.82;;;;;;;17.18;100.00;102146.13;5206247;28;20371;-80
2021/08/14 06:46:19;;;;;;;23.75;6.07;;;;;;;17.06;100.00;102156.53;5208992;28;20100;-82
2021/08/14 06:48:49;;;;;;;22.75;5.07;;;;;;;17.06;100.00;102153.81;5200193;28;20033;-81
2021/08/14 06:51:20;;;;;;;15.63;5.07;;;;;;;17.22;100.00;102161.03;5207019;28;20406;-80
2021/08/14 06:53:50;;;;;;;21.98;5.93;;;;;;;17.16;100.00;102153.59;5216825;28;20021;-82
2021/08/14 06:56:21;;;;;;;21.20;5.88;;;;;;;16.99;100.00;102152.00;5220374;28;20032;-82
2021/08/14 06:58:51;;;;;;;27.40;6.93;;;;;;;17.02;100.00;102155.22;5221045;28;20513;-80
2021/08/14 07:01:22;;;;;;;22.60;5.63;;;;;;;17.16;100.00;102167.16;5220267;28;20100;-80
2021/08/14 07:03:52;;;;;;;23.15;5.45;;;;;;;17.30;100.00;102155.53;5221964;28;20055;-81
2021/08/14 07:06:25;;;;;;;19.00;5.05;;;;;;;17.41;100.00;102156.16;5202417;28;20032;-80
2021/08/14 07:08:56;;;;;;;27.63;5.63;;;;;;;17.56;100.00;102159.78;5221086;28;20025;-80
2021/08/14 07:11:27;;;;;;;20.05;5.28;;;;;;;17.68;100.00;102152.09;5213211;28;20075;-81
2021/08/14 07:13:57;;;;;;;20.52;5.75;;;;;;;17.77;100.00;102157.31;5200902;28;20475;-81
2021/08/14 07:16:28;;;;;;;24.75;5.30;;;;;;;17.85;100.00;102151.78;5220298;28;20033;-80
2021/08/14 07:18:58;;;;;;;21.90;7.20;;;;;;;17.85;100.00;102164.53;5220223;28;20033;-81
2021/08/14 07:21:29;;;;;;;28.08;6.07;;;;;;;17.96;100.00;102166.78;5220591;28;20061;-80
2021/08/14 07:23:59;;;;;;;19.48;5.40;;;;;;;18.08;100.00;102165.34;5220051;28;20024;-81
2021/08/14 07:26:30;;;;;;;22.30;5.68;;;;;;;18.10;100.00;102163.28;5219902;28;20029;-81
2021/08/14 07:29:00;;;;;;;29.13;6.15;;;;;;;18.33;100.00;102159.69;5212112;28;20036;-80
2021/08/14 07:31:31;;;;;;;20.55;5.72;;;;;;;18.54;100.00;102165.22;5217653;28;20090;-80
2021/08/14 07:34:01;;;;;;;25.23;5.75;;;;;;;18.53;100.00;102154.53;5219801;28;20401;-80
2021/08/14 07:36:32;;;;;;;29.17;6.00;;;;;;;18.63;100.00;102155.94;5219877;28;20083;-80
2021/08/14 07:39:04;;;;;;;20.40;5.35;;;;;;;18.73;100.00;102152.97;5219143;28;20028;-82
2021/08/14 07:41:35;;;;;;;28.38;6.05;;;;;;;18.77;100.00;102153.41;5218910;28;20506;-80
2021/08/14 07:44:05;;;;;;;32.15;5.53;;;;;;;18.89;100.00;102147.31;5218997;28;20021;-80
2021/08/14 07:46:36;;;;;;;19.38;5.32;;;;;;;19.11;100.00;102150.09;5219470;28;20135;-80
2021/08/14 07:49:06;;;;;;;19.98;5.63;;;;;;;19.23;100.00;102151.28;5219223;28;20121;-80
2021/08/14 07:51:37;;;;;;;22.63;4.90;;;;;;;19.27;100.00;102160.72;5219456;28;20033;-81
2021/08/14 07:54:07;;;;;;;14.40;4.85;;;;;;;19.30;100.00;102151.38;5219155;28;20070;-81
2021/08/14 07:56:39;;;;;;;32.15;6.43;;;;;;;19.32;100.00;102163.72;5218698;28;20059;-83
2021/08/14 07:59:09;;;;;;;22.55;5.68;;;;;;;19.61;100.00;102159.25;5200863;28;20032;-81
2021/08/14 08:01:39;;;;;;;19.27;5.30;;;;;;;19.65;100.00;102164.13;5218372;28;20075;-83
2021/08/14 08:04:10;;;;;;;27.85;6.07;;;;;;;19.65;100.00;102158.66;5218527;28;20028;-80
2021/08/14 08:06:40;;;;;;;20.88;5.93;;;;;;;19.64;100.00;102164.31;5218206;28;20120;-80
2021/08/14 08:09:12;;;;;;;26.17;6.00;;;;;;;19.74;100.00;102144.94;5218161;28;20024;-82
2021/08/14 08:11:42;;;;;;;21.42;5.63;;;;;;;19.74;100.00;102140.34;5218230;28;20053;-82
2021/08/14 08:14:13;;;;;;;27.65;5.88;;;;;;;19.76;100.00;102142.84;5221793;28;20056;-82
2021/08/14 08:16:44;;;;;;;20.75;4.97;;;;;;;19.79;100.00;102148.75;5222947;28;20039;-81
2021/08/14 08:19:14;;;;;;;26.60;6.43;;;;;;;19.97;100.00;102141.97;5222021;28;20425;-81
2021/08/14 08:21:45;;;;;;;28.08;5.78;;;;;;;20.07;100.00;102148.75;5223207;28;20032;-81
2021/08/14 08:24:15;;;;;;;21.67;4.95;;;;;;;20.32;100.00;102154.59;5221986;28;20043;-80
2021/08/14 08:26:45;;;;;;;18.42;5.10;;;;;;;20.62;100.00;102147.06;5222081;28;20094;-80
2021/08/14 08:29:16;;;;;;;18.25;5.00;;;;;;;20.62;100.00;102148.97;5222518;28;20051;-79
2021/08/14 08:31:47;;;;;;;19.05;5.55;;;;;;;20.66;100.00;102145.63;5221851;28;20159;-79
2021/08/14 08:34:23;;;;;;;22.15;5.25;;;;;;;20.99;100.00;102146.84;5220923;28;20032;-82
2021/08/14 08:36:54;;;;;;;20.70;5.15;;;;;;;21.12;100.00;102139.53;5219563;28;20470;-80
2021/08/14 08:39:24;;;;;;;19.60;5.55;;;;;;;21.14;100.00;102136.63;5220133;28;20032;-81
2021/08/14 08:41:56;;;;;;;20.13;4.75;;;;;;;21.37;100.00;102130.81;5223411;28;20187;-80
2021/08/14 08:44:27;;;;;;;23.35;5.47;;;;;;;21.41;100.00;102138.38;5225420;28;20405;-81
2021/08/14 08:46:58;;;;;;;20.40;5.70;;;;;;;21.54;100.00;102131.28;5227491;28;20047;-79
2021/08/14 08:49:29;;;;;;;15.55;5.38;;;;;;;21.51;100.00;102131.69;5228049;28;20075;-81
2021/08/14 08:52:00;;;;;;;21.85;5.20;;;;;;;21.58;100.00;102127.06;5227362;28;20112;-80
2021/08/14 08:54:30;;;;;;;32.00;5.70;;;;;;;21.58;100.00;102122.44;5226649;28;20040;-80
2021/08/14 08:57:01;;;;;;;25.95;6.75;;;;;;;21.62;100.00;102111.94;5215227;28;20047;-80
2021/08/14 08:59:31;;;;;;;15.05;5.07;;;;;;;21.66;100.00;102124.97;5228162;28;20026;-80
2021/08/14 09:02:02;;;;;;;16.08;4.65;;;;;;;21.74;100.00;102121.22;5228327;28;20036;-80
2021/08/14 09:04:32;;;;;;;15.02;4.47;;;;;;;22.03;100.00;102124.56;5227534;28;20025;-79
2021/08/14 09:07:03;;;;;;;20.20;4.57;;;;;;;22.22;100.00;102137.41;5227635;28;20617;-80
2021/08/14 09:09:34;;;;;;;19.75;4.90;;;;;;;22.07;100.00;102125.81;5227249;28;20033;-80
2021/08/14 09:12:06;;;;;;;15.40;4.63;;;;;;;22.04;100.00;102131.69;5227041;28;20479;-79
2021/08/14 09:14:54;;;;;;;23.27;5.60;;;;;;;21.79;100.00;102118.69;5227896;28;20043;-80
2021/08/14 09:17:27;;;;;;;21.20;4.90;;;;;;;22.03;100.00;102125.38;5228387;28;20033;-80
2021/08/14 09:20:12;;;;;;;18.13;4.10;;;;;;;21.95;100.00;102134.66;5227131;28;20108;-79
2021/08/14 09:22:44;;;;;;;;;;;;;;;22.09;100.00;102135.50;5229285;28;20030;-81
2021/08/14 09:25:19;;;;;;;15.45;4.10;;;;;;;22.10;100.00;102126.25;5226677;28;19927;-81
2021/08/14 09:27:56;;;;;;;15.20;4.10;;;;;;;22.11;100.00;102127.13;5227061;28;20060;-80
2021/08/14 09:30:46;;;;;;;13.55;3.85;;;;;;;21.98;100.00;102134.22;5226827;28;20117;-80
2021/08/14 09:33:20;;;;;;;19.83;4.22;;;;;;;22.07;100.00;102134.00;5224184;28;20027;-81
2021/08/14 09:36:00;;;;;;;17.38;4.25;;;;;;;22.14;100.00;102126.66;5221629;28;20532;-80
2021/08/14 09:38:48;;;;;;;19.52;4.53;;;;;;;22.39;100.00;102130.44;5220938;28;20104;-80
2021/08/14 09:41:21;;;;;;;18.08;5.38;;;;;;;22.65;100.00;102125.94;5221512;28;20029;-81
2021/08/14 09:43:53;;;;;;;15.75;4.25;;;;;;;22.84;100.00;102122.31;5221532;28;20096;-79
2021/08/14 09:46:40;;;;;;;16.33;4.53;;;;;;;23.18;100.00;102128.47;5221738;28;20028;-80
2021/08/14 09:49:11;;;;;;;15.73;4.55;;;;;;;22.97;100.00;102122.25;5201603;28;20056;-79
2021/08/14 09:51:41;;;;;;;21.55;4.25;;;;;;;23.31;100.00;102125.66;5216710;28;20036;-79
2021/08/14 09:54:12;;;;;;;13.85;4.05;;;;;;;23.53;100.00;102121.50;5222035;28;20009;-80
2021/08/14 09:56:42;;;;;;;14.20;4.57;;;;;;;23.74;100.00;102112.09;5208733;28;20013;-81
2021/08/14 09:59:16;;;;;;;17.90;5.20;;;;;;;24.03;100.00;102115.22;5203580;28;20108;-81
2021/08/14 10:01:47;;;;;;;18.50;4.90;;;;;;;24.12;100.00;102113.88;5221130;28;20390;-80
2021/08/14 10:04:18;;;;;;;15.38;4.90;;;;;;;23.91;100.00;102106.91;5222316;28;20029;-80
2021/08/14 10:06:48;;;;;;;16.13;4.57;;;;;;;23.76;100.00;102107.25;5223044;28;20027;-80
2021/08/14 10:09:19;;;;;;;17.73;4.80;;;;;;;23.74;100.00;102120.31;5224776;28;20078;-79
2021/08/14 10:11:51;;;;;;;16.50;4.68;;;;;;;23.46;100.00;102122.63;5223743;28;20033;-79
2021/08/14 10:14:22;;;;;;;17.15;4.38;;;;;;;22.85;100.00;102115.78;5221932;28;20020;-80
2021/08/14 10:16:53;;;;;;;16.58;4.57;;;;;;;23.23;100.00;102106.75;5222721;28;20421;-80
2021/08/14 10:19:24;;;;;;;15.70;4.30;;;;;;;23.52;100.00;102121.72;5221655;28;20029;-79
2021/08/14 10:21:55;;;;;;;13.35;4.57;;;;;;;23.58;100.00;102109.88;5221846;28;20040;-79
2021/08/14 10:24:33;;;;;;;19.92;4.30;;;;;;;23.81;100.00;102109.31;5222592;28;20120;-81
2021/08/14 10:27:08;;;;;;;16.55;4.05;;;;;;;23.90;100.00;102098.91;5220807;28;20025;-78
2021/08/14 10:29:49;;;;;;;14.80;4.30;;;;;;;23.90;100.00;102102.50;5221292;28;20209;-80
2021/08/14 10:32:32;;;;;;;24.98;5.30;;;;;;;24.01;100.00;102100.91;5220697;28;20417;-80
2021/08/14 10:35:12;;;;;;;18.45;4.10;;;;;;;24.39;100.00;102103.50;5221061;28;20079;-81
2021/08/14 10:37:45;;;;;;;16.10;4.72;;;;;;;24.14;100.00;102108.16;5220769;28;20108;-81
2021/08/14 10:40:19;;;;;;;11.40;3.83;;;;;;;24.44;100.00;102106.38;5220466;28;20029;-81
2021/08/14 10:42:49;;;;;;;16.07;4.53;;;;;;;24.25;100.00;102101.94;5220428;28;20028;-82
2021/08/14 10:45:22;;;;;;;24.38;4.88;;;;;;;24.52;100.00;102094.28;5220408;28;20382;-81
2021/08/14 10:47:53;;;;;;;10.70;3.90;;;;;;;24.56;100.00;102098.25;5220468;28;20627;-82
2021/08/14 10:50:30;;;;;;;17.58;4.70;;;;;;;24.56;100.00;102101.00;5219711;28;20394;-82
2021/08/14 10:53:10;;;;;;;19.33;5.10;;;;;;;24.63;100.00;102096.25;5219978;28;20029;-82
2021/08/14 10:55:50;;;;;;;17.63;4.80;;;;;;;24.33;100.00;102087.91;5219169;28;20083;-81
2021/08/14 10:58:22;;;;;;;16.00;4.32;;;;;;;24.44;100.00;102083.59;5202091;28;20100;-82
2021/08/14 11:01:20;;;;;;;14.85;5.18;;;;;;;24.13;100.00;102082.66;5219371;28;20370;-82
2021/08/14 11:03:52;;;;;;;15.52;4.20;;;;;;;24.30;100.00;102088.41;5209080;28;20470;-82
2021/08/14 11:06:26;;;;;;;16.63;5.45;;;;;;;23.80;100.00;102088.47;5218989;28;20025;-82
2021/08/14 11:09:16;;;;;;;14.98;4.25;;;;;;;23.69;100.00;102081.78;5219413;28;20064;-82
2021/08/14 11:11:49;;;;;;;13.55;3.95;;;;;;;23.78;100.00;102069.50;5207585;28;20570;-82
2021/08/14 11:14:20;;;;;;;15.93;4.03;;;;;;;24.25;100.00;102069.03;5219018;28;20538;-81
2021/08/14 11:17:00;;;;;;;15.25;3.92;;;;;;;24.59;100.00;102075.00;5219009;28;20116;-80
2021/08/14 11:19:47;;;;;;;9.70;4.40;;;;;;;24.99;100.00;102070.66;5200848;28;20059;-82
2021/08/14 11:22:28;;;;;;;14.35;4.30;;;;;;;25.29;100.00;102075.31;5219764;28;20386;-82
2021/08/14 11:25:02;;;;;;;15.77;5.43;;;;;;;25.39;100.00;102072.84;5220280;28;20139;-83
2021/08/14 11:27:35;;;;;;;13.25;4.13;;;;;;;25.74;86.83;102072.06;5219970;28;20107;-82
2021/08/14 11:30:09;;;;;;;12.77;4.78;;;;;;;25.49;100.00;102073.09;5220132;28;20036;-82